Terminal Aerodrome Forecast
Issued by NWS Shreveport, LA

Home | Current Version | Previous Version | Text Only | Print | Product List | Glossary On
Versions: 1 2 3 4 5 6 7 8 9 10 11 12 13 14
000
FTUS44 KSHV 211739
TAFSHV
TAF
KSHV 211739Z 2118/2218 13006KT P6SM SCT040 SCT250
     FM212100 14006KT P6SM BKN060 BKN250
     FM220000 14003KT P6SM SCT060 SCT250
     FM221100 21003KT 6SM BR SCT025
     FM221400 23004KT P6SM SCT040 BKN250=

USA.gov is the U.S. government's official web portal to all federal, state and local government web resources and services.